Time;durP1;ratioP1;P1;durP2;ratioP2;P2;SDS_P1;SDS_P2;PMS_P1;PMS_P2;Temp;Humidity;BMP_temperature;BMP_pressure;BME280_temperature;BME280_humidity;BME280_pressure;Samples;Min_cycle;Max_cycle;Signal;HPM_P1;HPM_P2
2022/03/12 00:01:07;;;;;;;129.17;48.47;;;-3.10;99.90;;;;;;5030734;28;20580;-66
2022/03/12 00:03:35;;;;;;;121.50;46.50;;;-3.10;99.90;;;;;;5030499;28;20210;-67
2022/03/12 00:06:03;;;;;;;127.50;46.77;;;-3.10;99.90;;;;;;5031000;28;20222;-67
2022/03/12 00:08:42;;;;;;;100.93;41.53;;;-3.10;99.90;;;;;;5030399;28;20216;-66
2022/03/12 00:11:15;;;;;;;104.77;39.90;;;-3.20;99.90;;;;;;5030591;28;20193;-66
2022/03/12 00:13:44;;;;;;;99.03;39.97;;;-3.10;99.90;;;;;;5030570;28;20243;-66
2022/03/12 00:16:13;;;;;;;95.97;39.47;;;-3.20;99.90;;;;;;5030457;28;20210;-70
2022/03/12 00:18:42;;;;;;;93.87;37.70;;;-3.20;99.90;;;;;;5030384;28;20214;-67
2022/03/12 00:21:12;;;;;;;76.70;35.10;;;-3.20;99.90;;;;;;5030388;28;20320;-66
2022/03/12 00:23:40;;;;;;;80.73;33.80;;;-3.20;99.90;;;;;;5030341;28;20201;-66
2022/03/12 00:26:07;;;;;;;85.57;34.63;;;-3.20;99.90;;;;;;5030611;28;20237;-65
2022/03/12 00:28:36;;;;;;;81.00;35.53;;;-3.20;99.90;;;;;;5030355;27;20747;-65
2022/03/12 00:31:03;;;;;;;86.63;37.17;;;-3.20;99.90;;;;;;5029999;28;20199;-65
2022/03/12 00:33:31;;;;;;;83.27;35.23;;;-3.20;99.90;;;;;;5030014;28;20202;-66
2022/03/12 00:35:58;;;;;;;77.83;34.83;;;-3.20;99.90;;;;;;5030084;28;20210;-65
2022/03/12 00:38:26;;;;;;;106.00;40.40;;;-3.20;99.90;;;;;;5030265;28;20568;-66
2022/03/12 00:40:53;;;;;;;117.43;44.80;;;-3.20;99.90;;;;;;5030268;28;20317;-65
2022/03/12 00:43:20;;;;;;;135.90;48.03;;;-3.30;99.90;;;;;;5029942;28;20591;-66
2022/03/12 00:45:49;;;;;;;126.73;45.20;;;-3.30;99.90;;;;;;5029793;28;20214;-66
2022/03/12 00:48:17;;;;;;;122.57;44.73;;;-3.40;99.90;;;;;;5030042;28;20209;-67
2022/03/12 00:50:44;;;;;;;114.27;43.37;;;-3.40;99.90;;;;;;5029283;28;20651;-66
2022/03/12 00:53:11;;;;;;;90.43;39.13;;;-3.40;99.90;;;;;;5029639;28;20209;-65
2022/03/12 00:55:38;;;;;;;95.20;36.60;;;-3.50;99.90;;;;;;5029748;28;20308;-66
2022/03/12 00:58:06;;;;;;;81.07;32.33;;;-3.50;99.90;;;;;;5029756;28;20859;-65
2022/03/12 01:00:33;;;;;;;78.53;31.53;;;-3.50;99.90;;;;;;5029901;28;20229;-67
2022/03/12 01:03:02;;;;;;;85.33;32.13;;;-3.60;99.90;;;;;;5029749;28;20206;-65
2022/03/12 01:05:43;;;;;;;71.73;30.47;;;-3.60;99.90;;;;;;5029517;28;20217;-66
2022/03/12 01:08:11;;;;;;;70.53;28.47;;;-3.60;99.90;;;;;;5029853;28;20532;-65
2022/03/12 01:10:38;;;;;;;62.97;26.27;;;-3.70;99.90;;;;;;5029571;28;20202;-65
2022/03/12 01:13:05;;;;;;;63.03;26.13;;;-3.70;99.90;;;;;;5029694;28;20218;-66
2022/03/12 01:15:33;;;;;;;76.50;29.37;;;-3.70;99.90;;;;;;5029426;28;20210;-66
2022/03/12 01:18:01;;;;;;;79.73;31.83;;;-3.80;99.90;;;;;;5029517;28;20206;-67
2022/03/12 01:20:29;;;;;;;90.23;36.17;;;-3.80;99.90;;;;;;5029541;28;20226;-66
2022/03/12 01:22:56;;;;;;;102.13;37.77;;;-3.80;99.90;;;;;;5029384;28;20206;-66
2022/03/12 01:25:23;;;;;;;103.60;40.53;;;-3.90;99.90;;;;;;5029429;28;20690;-66
2022/03/12 01:27:50;;;;;;;119.47;44.23;;;-3.80;99.90;;;;;;5029213;28;20206;-65
2022/03/12 01:30:28;;;;;;;118.53;44.80;;;-3.90;99.90;;;;;;5029090;28;20213;-66
2022/03/12 01:32:55;;;;;;;135.70;48.07;;;-3.90;99.90;;;;;;5029331;28;20194;-66
2022/03/12 01:35:24;;;;;;;137.20;48.87;;;-3.90;99.90;;;;;;5029426;28;20561;-65
2022/03/12 01:37:52;;;;;;;129.83;47.63;;;-3.80;99.90;;;;;;5029342;28;20621;-66
2022/03/12 01:40:19;;;;;;;123.37;42.83;;;-3.80;99.90;;;;;;5029193;28;20740;-65
2022/03/12 01:42:47;;;;;;;96.13;38.27;;;-3.80;99.90;;;;;;5029294;28;20265;-67
2022/03/12 01:45:22;;;;;;;95.87;36.83;;;-3.80;99.90;;;;;;5029310;28;20214;-66
2022/03/12 01:47:49;;;;;;;94.33;34.93;;;-3.80;99.90;;;;;;5029114;28;20239;-66
2022/03/12 01:50:20;;;;;;;100.30;35.07;;;-3.90;99.90;;;;;;5028916;28;20202;-65
2022/03/12 01:52:48;;;;;;;96.80;33.23;;;-3.90;99.90;;;;;;5029171;28;20624;-66
2022/03/12 01:55:16;;;;;;;79.17;29.53;;;-3.90;99.90;;;;;;5028869;28;20246;-65
2022/03/12 01:57:43;;;;;;;76.47;27.73;;;-3.90;99.90;;;;;;5029053;28;20241;-66
2022/03/12 02:00:23;;;;;;;81.80;30.83;;;-3.80;99.90;;;;;;5028989;28;20577;-66
2022/03/12 02:02:53;;;;;;;73.60;29.67;;;-3.80;99.90;;;;;;5032594;28;20197;-65
2022/03/12 02:05:22;;;;;;;74.93;29.73;;;-3.80;99.90;;;;;;5032980;28;20660;-65
2022/03/12 02:07:51;;;;;;;66.03;26.73;;;-3.80;99.90;;;;;;5032600;28;20206;-66
2022/03/12 02:10:20;;;;;;;73.17;27.03;;;-3.80;99.90;;;;;;5032489;28;20206;-65
2022/03/12 02:12:47;;;;;;;65.23;25.93;;;-3.80;99.90;;;;;;5032505;28;20574;-66
2022/03/12 02:15:20;;;;;;;64.80;26.37;;;-3.80;99.90;;;;;;5032149;28;20201;-66
2022/03/12 02:17:47;;;;;;;64.83;25.20;;;-3.90;99.90;;;;;;5032230;28;20190;-65
2022/03/12 02:20:17;;;;;;;61.30;25.23;;;-3.90;99.90;;;;;;5032158;28;20584;-66
2022/03/12 02:22:45;;;;;;;64.77;25.63;;;-3.90;99.90;;;;;;5032487;28;20356;-66
2022/03/12 02:25:14;;;;;;;62.83;24.90;;;-3.90;99.90;;;;;;5032031;28;20304;-65
2022/03/12 02:27:41;;;;;;;62.53;24.20;;;-3.90;99.90;;;;;;5032001;28;20210;-66
2022/03/12 02:30:09;;;;;;;60.40;23.20;;;-3.90;99.90;;;;;;5031827;28;20210;-66
2022/03/12 02:32:37;;;;;;;53.83;23.00;;;-3.90;99.90;;;;;;5032282;28;20655;-65
2022/03/12 02:35:10;;;;;;;50.43;22.67;;;-3.90;99.90;;;;;;5031861;28;20210;-65
2022/03/12 02:37:45;;;;;;;55.93;22.17;;;-4.00;99.90;;;;;;5032114;28;20191;-65
2022/03/12 02:40:14;;;;;;;49.27;20.23;;;-3.90;99.90;;;;;;5032164;28;20306;-66
2022/03/12 02:42:41;;;;;;;58.53;23.17;;;-4.00;99.90;;;;;;5032050;28;20229;-66
2022/03/12 02:45:10;;;;;;;49.20;21.27;;;-4.00;99.90;;;;;;5031933;28;20217;-65
2022/03/12 02:47:40;;;;;;;52.90;20.10;;;-4.10;99.90;;;;;;5031698;28;20210;-66
2022/03/12 02:50:10;;;;;;;56.77;22.83;;;-4.10;99.90;;;;;;5031525;28;20287;-67
2022/03/12 02:52:41;;;;;;;58.43;24.10;;;-4.10;99.90;;;;;;5031802;28;20206;-66
2022/03/12 02:55:12;;;;;;;63.27;24.47;;;-4.10;99.90;;;;;;5031398;28;20295;-66
2022/03/12 02:57:41;;;;;;;62.03;24.37;;;-4.10;99.90;;;;;;5032040;28;20269;-65
2022/03/12 03:00:10;;;;;;;58.30;23.53;;;-4.10;99.90;;;;;;5031678;28;20201;-66
2022/03/12 03:02:40;;;;;;;62.30;25.37;;;-4.10;99.90;;;;;;5031447;28;20206;-65
2022/03/12 03:05:15;;;;;;;64.63;24.47;;;-4.10;99.90;;;;;;5031323;28;20195;-66
2022/03/12 03:07:45;;;;;;;67.23;24.80;;;-4.10;99.90;;;;;;5031581;28;20242;-66
2022/03/12 03:10:24;;;;;;;59.27;24.43;;;-4.10;99.90;;;;;;5031442;28;20293;-65
2022/03/12 03:12:53;;;;;;;62.23;24.70;;;-4.10;99.90;;;;;;5030470;28;20201;-66
2022/03/12 03:15:20;;;;;;;53.90;21.20;;;-4.00;99.90;;;;;;5031357;28;20202;-65
2022/03/12 03:17:48;;;;;;;64.13;22.97;;;-4.00;99.90;;;;;;5031367;28;20575;-66
2022/03/12 03:20:16;;;;;;;64.63;23.70;;;-4.00;99.90;;;;;;5031346;28;20303;-65
2022/03/12 03:22:43;;;;;;;59.00;22.77;;;-4.00;99.90;;;;;;5031164;28;20258;-66
2022/03/12 03:25:10;;;;;;;66.03;24.13;;;-3.90;99.90;;;;;;5031545;28;20208;-65
2022/03/12 03:27:37;;;;;;;69.83;25.93;;;-3.90;99.90;;;;;;5031151;28;20209;-65
2022/03/12 03:30:07;;;;;;;53.83;22.03;;;-3.90;99.90;;;;;;5031231;28;20651;-66
2022/03/12 03:32:34;;;;;;;48.63;18.03;;;-3.90;99.90;;;;;;5031062;28;20212;-67
2022/03/12 03:35:01;;;;;;;29.20;13.73;;;-3.80;99.90;;;;;;5031156;28;20712;-65
2022/03/12 03:37:28;;;;;;;35.83;14.53;;;-3.80;99.90;;;;;;5031332;28;20221;-66
2022/03/12 03:39:55;;;;;;;39.47;16.00;;;-3.80;99.90;;;;;;5030765;28;20221;-67
2022/03/12 03:42:23;;;;;;;35.60;13.90;;;-3.70;99.90;;;;;;5030727;28;20260;-66
2022/03/12 03:44:52;;;;;;;31.17;12.63;;;-3.70;99.90;;;;;;5031058;28;20210;-67
2022/03/12 03:47:20;;;;;;;29.27;12.20;;;-3.70;99.90;;;;;;5030781;28;20246;-66
2022/03/12 03:49:47;;;;;;;25.73;11.30;;;-3.70;99.90;;;;;;5030853;28;20556;-66
2022/03/12 03:52:14;;;;;;;21.97;10.23;;;-3.60;99.90;;;;;;5030949;28;20209;-65
2022/03/12 03:54:43;;;;;;;26.83;11.33;;;-3.60;99.90;;;;;;5030508;28;20338;-66
2022/03/12 03:57:14;;;;;;;25.40;11.23;;;-3.70;99.90;;;;;;5030779;28;20194;-66
2022/03/12 03:59:42;;;;;;;24.20;12.00;;;-3.70;99.90;;;;;;5031015;28;20652;-67
2022/03/12 04:02:09;;;;;;;27.73;13.20;;;-3.70;99.90;;;;;;5030832;28;20714;-66
2022/03/12 05:10:44;;;;;;;105.57;45.60;;;-4.80;99.90;;;;;;5069152;28;20531;-71
2022/03/12 05:13:12;;;;;;;111.13;44.60;;;-4.20;99.90;;;;;;5069482;28;20669;-70
2022/03/12 05:15:40;;;;;;;92.57;39.90;;;-4.20;99.90;;;;;;5069340;28;20207;-70
2022/03/12 05:18:10;;;;;;;83.73;36.00;;;-4.10;99.90;;;;;;5069096;28;20688;-69
2022/03/12 05:20:38;;;;;;;74.87;32.27;;;-4.10;99.90;;;;;;5068822;28;20205;-70
2022/03/12 05:23:07;;;;;;;66.87;29.13;;;-4.00;99.90;;;;;;5069307;28;20223;-69
2022/03/12 05:25:35;;;;;;;65.30;28.80;;;-4.00;99.90;;;;;;5069197;28;20639;-68
2022/03/12 05:28:03;;;;;;;58.03;25.30;;;-3.90;99.90;;;;;;5068640;28;20213;-71
2022/03/12 05:30:31;;;;;;;49.30;22.87;;;-3.90;99.90;;;;;;5068654;28;20570;-70
2022/03/12 05:32:59;;;;;;;50.07;21.93;;;-3.90;99.90;;;;;;5068859;28;20671;-70
2022/03/12 05:35:26;;;;;;;49.23;21.17;;;-3.90;99.90;;;;;;5068711;28;20205;-70
2022/03/12 05:37:54;;;;;;;51.97;21.80;;;-3.90;99.90;;;;;;5068698;28;20232;-70
2022/03/12 05:40:26;;;;;;;46.33;20.63;;;-3.90;99.90;;;;;;5068254;28;20270;-70
2022/03/12 05:42:55;;;;;;;48.87;20.70;;;-3.90;99.90;;;;;;5068391;28;20189;-69
2022/03/12 05:45:24;;;;;;;50.53;20.90;;;-3.90;99.90;;;;;;5068165;28;20209;-70
2022/03/12 05:47:52;;;;;;;45.67;19.23;;;-3.80;99.90;;;;;;5068524;28;20607;-70
2022/03/12 05:50:21;;;;;;;41.87;17.23;;;-3.80;99.90;;;;;;5068305;28;20732;-69
2022/03/12 05:52:49;;;;;;;45.47;18.43;;;-3.70;99.90;;;;;;5068311;28;20209;-69
2022/03/12 05:55:19;;;;;;;36.60;16.17;;;-3.70;99.90;;;;;;5067909;28;20208;-70
2022/03/12 05:57:46;;;;;;;36.00;15.40;;;-3.70;99.90;;;;;;5068270;28;20573;-69
2022/03/12 06:00:15;;;;;;;38.77;16.03;;;-3.60;99.90;;;;;;5067933;28;20229;-70
2022/03/12 06:02:51;;;;;;;30.63;14.40;;;-3.60;99.90;;;;;;5067921;28;20295;-69
2022/03/12 06:05:19;;;;;;;41.37;16.43;;;-3.50;99.90;;;;;;5067987;28;20247;-69
2022/03/12 06:07:46;;;;;;;37.57;15.03;;;-3.40;99.90;;;;;;5067746;28;20220;-70
2022/03/12 06:10:15;;;;;;;35.37;14.67;;;-3.40;99.90;;;;;;5061937;28;20233;-69
2022/03/12 06:12:43;;;;;;;40.47;15.43;;;-3.30;99.90;;;;;;5054883;28;20201;-70
2022/03/12 06:15:16;;;;;;;41.17;16.63;;;-3.20;99.90;;;;;;5054562;28;20232;-70
2022/03/12 06:17:46;;;;;;;41.07;16.97;;;-3.10;99.90;;;;;;5054985;28;20197;-69
2022/03/12 06:20:14;;;;;;;39.17;16.13;;;-3.00;99.90;;;;;;5054415;28;20620;-71
2022/03/12 06:22:42;;;;;;;40.20;17.30;;;-2.90;99.90;;;;;;5054639;28;20732;-69
2022/03/12 06:25:11;;;;;;;46.53;18.07;;;-2.80;99.90;;;;;;5054211;28;20213;-69
2022/03/12 06:27:39;;;;;;;38.57;17.40;;;-2.70;99.90;;;;;;5054388;28;20204;-69
2022/03/12 06:30:08;;;;;;;38.13;16.90;;;-2.60;99.90;;;;;;5054110;28;20206;-69
2022/03/12 06:32:36;;;;;;;32.10;13.70;;;-2.50;99.90;;;;;;5054463;28;20263;-70
2022/03/12 06:35:06;;;;;;;27.40;12.10;;;-2.40;99.90;;;;;;5054300;28;20659;-70
2022/03/12 06:37:33;;;;;;;32.13;11.63;;;-2.30;99.90;;;;;;5053995;28;20217;-69
2022/03/12 06:40:00;;;;;;;24.97;10.50;;;-2.20;99.90;;;;;;5054011;28;20576;-70
2022/03/12 06:42:32;;;;;;;24.03;9.50;;;-2.10;99.90;;;;;;5054001;28;20210;-69
2022/03/12 06:44:59;;;;;;;18.57;9.10;;;-2.00;99.90;;;;;;5054139;28;20193;-70
2022/03/12 06:47:31;;;;;;;21.17;9.10;;;-1.90;99.90;;;;;;5053839;28;20206;-69
2022/03/12 06:50:00;;;;;;;21.23;9.43;;;-1.80;99.90;;;;;;5053736;28;20189;-70
2022/03/12 06:52:30;;;;;;;20.57;8.73;;;-1.70;99.90;;;;;;5053977;28;20685;-69
2022/03/12 06:54:57;;;;;;;18.17;8.97;;;-1.60;99.90;;;;;;5053648;28;20210;-70
2022/03/12 06:57:24;;;;;;;18.40;9.00;;;-1.50;99.90;;;;;;5053737;28;20205;-70
2022/03/12 06:59:52;;;;;;;22.00;8.43;;;-1.40;99.90;;;;;;5053490;28;20225;-69
2022/03/12 07:02:19;;;;;;;20.90;8.73;;;-1.30;99.90;;;;;;5053799;28;20216;-70
2022/03/12 07:04:46;;;;;;;18.53;8.23;;;-1.20;99.90;;;;;;5053531;28;20209;-69
2022/03/12 07:07:13;;;;;;;21.30;9.13;;;-1.10;99.90;;;;;;5054031;28;20662;-69
2022/03/12 07:09:42;;;;;;;20.50;8.83;;;-1.00;99.90;;;;;;5053370;28;20287;-70
2022/03/12 07:12:11;;;;;;;18.97;8.07;;;-0.90;99.90;;;;;;5053250;28;20209;-70
2022/03/12 07:14:38;;;;;;;23.30;8.63;;;-0.80;99.90;;;;;;5053630;28;20285;-69
2022/03/12 07:17:06;;;;;;;21.57;8.17;;;-0.70;99.90;;;;;;5053371;28;20701;-70
2022/03/12 07:19:33;;;;;;;23.97;9.00;;;-0.60;99.90;;;;;;5053320;28;20225;-70
2022/03/12 07:22:00;;;;;;;21.70;7.90;;;-0.50;99.90;;;;;;5052135;28;20207;-69
2022/03/12 07:24:27;;;;;;;20.63;8.30;;;-0.40;99.90;;;;;;5053212;28;20205;-69
2022/03/12 07:26:56;;;;;;;28.20;9.30;;;-0.40;99.90;;;;;;5053296;28;20678;-71
2022/03/12 07:29:23;;;;;;;30.07;9.10;;;-0.30;99.90;;;;;;5053188;28;20654;-70
2022/03/12 07:31:50;;;;;;;21.73;8.33;;;-0.20;99.90;;;;;;5053141;28;20431;-69
2022/03/12 07:34:19;;;;;;;19.27;7.67;;;-0.10;99.90;;;;;;5053307;28;20236;-69
2022/03/12 07:36:47;;;;;;;22.53;8.33;;;-0.10;99.90;;;;;;5053326;28;20288;-70
2022/03/12 07:39:14;;;;;;;20.13;7.77;;;0.00;99.90;;;;;;5052818;28;20228;-69
2022/03/12 07:41:41;;;;;;;16.70;6.67;;;0.10;99.90;;;;;;5053103;28;20568;-69
2022/03/12 07:44:09;;;;;;;16.40;6.80;;;0.20;99.90;;;;;;5052998;28;20220;-71
2022/03/12 07:46:37;;;;;;;12.03;5.27;;;0.30;99.90;;;;;;5053082;28;20209;-70
2022/03/12 07:49:04;;;;;;;14.83;5.60;;;0.40;99.90;;;;;;5052710;28;20209;-70
2022/03/12 07:51:32;;;;;;;8.20;4.43;;;0.50;99.90;;;;;;5052612;28;20209;-70
2022/03/12 07:54:00;;;;;;;11.30;4.60;;;0.60;99.90;;;;;;5052851;28;20659;-70
2022/03/12 07:56:28;;;;;;;10.93;4.67;;;0.70;99.90;;;;;;5052622;28;20206;-70
2022/03/12 07:58:56;;;;;;;8.67;4.27;;;0.70;99.90;;;;;;5052582;28;20225;-71
2022/03/12 08:01:24;;;;;;;19.47;5.30;;;0.80;99.90;;;;;;5052649;28;20729;-69
2022/03/12 08:03:51;;;;;;;7.90;4.77;;;0.90;99.90;;;;;;5052594;28;20596;-70
2022/03/12 08:06:19;;;;;;;15.77;5.90;;;1.00;99.90;;;;;;5052627;28;20221;-69
2022/03/12 08:08:46;;;;;;;16.07;6.90;;;1.00;99.90;;;;;;5052422;28;20736;-70
2022/03/12 08:11:26;;;;;;;15.30;6.60;;;1.10;99.90;;;;;;5052523;28;20212;-71
2022/03/12 08:13:56;;;;;;;15.97;7.73;;;1.20;99.90;;;;;;5052290;28;20582;-69
2022/03/12 08:16:25;;;;;;;21.27;7.40;;;1.30;99.90;;;;;;5052252;28;20201;-70
2022/03/12 08:18:52;;;;;;;14.87;7.30;;;1.40;99.90;;;;;;5052286;28;20725;-69
2022/03/12 08:21:19;;;;;;;14.47;7.67;;;1.40;99.90;;;;;;5052475;28;20210;-69
2022/03/12 08:23:47;;;;;;;21.90;7.90;;;1.50;99.90;;;;;;5051794;28;20209;-70
2022/03/12 08:26:14;;;;;;;13.80;5.80;;;1.60;99.90;;;;;;5052124;28;20201;-69
2022/03/12 08:28:41;;;;;;;8.10;3.73;;;1.60;98.90;;;;;;5052140;28;20319;-70
2022/03/12 08:31:08;;;;;;;10.20;4.60;;;1.70;96.40;;;;;;5052421;28;20232;-70
2022/03/12 08:33:37;;;;;;;7.03;4.10;;;1.80;96.40;;;;;;5051847;28;20291;-69
2022/03/12 08:36:05;;;;;;;10.63;5.00;;;1.90;96.00;;;;;;5051961;28;20205;-71
2022/03/12 08:38:34;;;;;;;17.23;4.73;;;2.00;95.20;;;;;;5051947;28;20205;-70
2022/03/12 08:41:01;;;;;;;12.70;4.70;;;2.00;94.10;;;;;;5051965;28;20318;-70
2022/03/12 08:43:28;;;;;;;11.60;4.70;;;2.00;93.90;;;;;;5052177;28;20675;-70
2022/03/12 08:45:55;;;;;;;14.90;5.50;;;2.00;93.60;;;;;;5051567;28;20212;-68
2022/03/12 08:48:22;;;;;;;9.20;5.47;;;2.10;92.80;;;;;;5051773;28;20224;-70
2022/03/12 08:50:51;;;;;;;12.07;5.60;;;2.10;92.00;;;;;;5051948;28;20565;-70
2022/03/12 08:53:18;;;;;;;9.17;4.73;;;2.10;91.70;;;;;;5051775;28;20216;-70
2022/03/12 08:55:45;;;;;;;9.53;4.47;;;2.20;91.80;;;;;;5051891;28;20559;-71
2022/03/12 08:58:12;;;;;;;8.00;4.47;;;2.20;91.90;;;;;;5051743;28;20216;-70
2022/03/12 09:00:39;;;;;;;8.83;4.83;;;2.30;91.40;;;;;;5051320;28;20225;-70
2022/03/12 09:03:07;;;;;;;7.43;4.10;;;2.40;91.30;;;;;;5052136;28;20742;-71
2022/03/12 09:05:35;;;;;;;9.70;4.50;;;2.40;91.00;;;;;;5052120;28;20245;-70
2022/03/12 09:08:04;;;;;;;8.07;4.40;;;2.50;91.20;;;;;;5052882;28;20269;-69
2022/03/12 09:10:32;;;;;;;11.47;4.13;;;2.50;90.60;;;;;;5052107;28;20229;-69
2022/03/12 09:12:59;;;;;;;8.10;4.43;;;2.60;90.60;;;;;;5051871;28;20637;-70
2022/03/12 09:15:27;;;;;;;7.73;4.77;;;2.70;90.00;;;;;;5051838;28;20672;-69
2022/03/12 09:17:54;;;;;;;11.13;5.77;;;2.80;89.90;;;;;;5051428;28;20212;-70
2022/03/12 09:20:21;;;;;;;9.07;5.03;;;2.80;89.70;;;;;;5051711;28;20576;-68
2022/03/12 09:22:48;;;;;;;10.07;5.00;;;2.80;85.70;;;;;;5051522;28;20562;-69
2022/03/12 09:25:17;;;;;;;21.60;8.77;;;2.90;85.80;;;;;;5051367;28;20221;-69
2022/03/12 09:27:45;;;;;;;19.73;12.03;;;2.90;87.00;;;;;;5051271;28;20305;-71
2022/03/12 09:30:15;;;;;;;33.37;19.47;;;2.90;83.60;;;;;;5051434;28;20212;-69
2022/03/12 15:06:41;;;;;;;11.67;5.60;;;3.50;93.80;;;;;;5109334;27;20581;-66
2022/03/12 15:09:09;;;;;;;8.47;5.10;;;3.80;95.40;;;;;;5109737;28;20294;-66
2022/03/12 15:11:37;;;;;;;10.23;5.03;;;3.80;94.60;;;;;;5109709;28;20684;-67
2022/03/12 15:14:05;;;;;;;9.67;5.87;;;3.80;94.30;;;;;;5109488;28;20260;-66
2022/03/12 15:16:32;;;;;;;8.00;4.93;;;3.70;94.30;;;;;;5109285;28;20214;-66
2022/03/12 15:19:01;;;;;;;9.27;4.83;;;3.70;94.10;;;;;;5109573;28;20564;-69
2022/03/12 15:21:28;;;;;;;8.93;4.90;;;3.70;94.20;;;;;;5109429;28;20211;-66
2022/03/12 15:23:57;;;;;;;12.30;4.83;;;3.70;93.40;;;;;;5109462;28;20207;-66
2022/03/12 15:26:25;;;;;;;6.67;4.50;;;3.70;93.40;;;;;;5109335;28;20207;-67
2022/03/12 15:28:52;;;;;;;9.13;5.07;;;3.70;93.30;;;;;;5109091;28;20199;-66
2022/03/12 15:31:20;;;;;;;6.80;4.80;;;3.60;93.30;;;;;;5109358;28;20678;-66
2022/03/12 15:33:51;;;;;;;9.70;4.77;;;3.70;93.30;;;;;;5108860;28;20200;-66
2022/03/12 15:36:22;;;;;;;9.27;5.13;;;3.60;93.30;;;;;;5109048;28;20188;-66
2022/03/12 15:38:51;;;;;;;10.50;5.53;;;3.60;93.10;;;;;;5109273;28;20619;-66
2022/03/12 15:41:21;;;;;;;8.13;5.00;;;3.60;93.30;;;;;;5108866;28;20219;-67
2022/03/12 15:43:51;;;;;;;7.97;5.00;;;3.60;93.00;;;;;;5108879;28;20203;-66
2022/03/12 15:46:19;;;;;;;9.93;5.20;;;3.60;93.10;;;;;;5108782;28;20227;-66
2022/03/12 15:48:47;;;;;;;9.13;4.70;;;3.60;93.20;;;;;;5109090;28;20231;-66
2022/03/12 15:51:14;;;;;;;9.50;4.87;;;3.60;93.20;;;;;;5109054;28;20211;-67
2022/03/12 15:53:43;;;;;;;7.37;4.50;;;3.60;93.40;;;;;;5108614;28;20207;-66
2022/03/12 15:56:11;;;;;;;6.63;3.90;;;3.60;94.00;;;;;;5108616;28;20224;-67
2022/03/12 15:58:42;;;;;;;7.70;4.23;;;3.50;94.60;;;;;;5108675;28;20293;-66
2022/03/12 16:01:09;;;;;;;7.13;5.00;;;3.40;95.10;;;;;;5108496;28;20195;-66
2022/03/12 16:03:36;;;;;;;9.13;5.53;;;3.40;95.90;;;;;;5108365;28;20226;-66
2022/03/12 16:06:04;;;;;;;9.67;4.93;;;3.30;96.50;;;;;;5103346;28;20261;-66
2022/03/12 16:08:32;;;;;;;14.13;6.90;;;3.20;96.90;;;;;;5094970;28;20625;-67
2022/03/12 16:11:00;;;;;;;10.20;5.60;;;3.20;97.20;;;;;;5094999;28;20306;-66
2022/03/12 16:13:28;;;;;;;8.37;5.10;;;3.10;97.20;;;;;;5094955;28;20203;-67
2022/03/12 16:16:00;;;;;;;10.67;4.97;;;3.10;97.20;;;;;;5094577;28;20227;-66
2022/03/12 16:18:28;;;;;;;7.90;4.63;;;3.00;97.20;;;;;;5094597;28;20188;-67
2022/03/12 16:20:56;;;;;;;10.73;5.13;;;3.00;97.30;;;;;;5094601;28;20208;-66
2022/03/12 16:23:25;;;;;;;8.97;4.90;;;3.00;97.30;;;;;;5094465;28;20215;-67
2022/03/12 16:25:52;;;;;;;9.23;5.03;;;3.00;97.60;;;;;;5094524;28;20200;-66
2022/03/12 16:28:20;;;;;;;11.30;5.10;;;3.00;97.90;;;;;;5094293;28;20207;-66
2022/03/12 16:30:47;;;;;;;12.33;5.90;;;3.00;98.20;;;;;;5094606;28;20615;-67
2022/03/12 16:33:16;;;;;;;11.47;5.77;;;3.00;98.60;;;;;;5094218;28;20215;-67
2022/03/12 16:35:43;;;;;;;10.80;5.47;;;3.00;98.90;;;;;;5094467;28;20224;-66
2022/03/12 16:38:12;;;;;;;11.53;6.47;;;2.90;99.20;;;;;;5094336;28;20240;-67
2022/03/12 16:40:41;;;;;;;10.73;6.20;;;2.90;99.50;;;;;;5094141;28;20207;-67
2022/03/12 16:43:10;;;;;;;10.67;6.00;;;2.90;99.20;;;;;;5094043;28;20208;-68
2022/03/12 16:45:44;;;;;;;10.67;5.30;;;2.90;99.30;;;;;;5094210;28;20204;-67
2022/03/12 16:48:12;;;;;;;9.37;4.60;;;2.80;99.80;;;;;;5094416;28;20594;-67
2022/03/12 16:50:41;;;;;;;11.17;5.00;;;2.80;99.90;;;;;;5093978;28;20299;-66
2022/03/12 16:53:09;;;;;;;9.63;5.57;;;2.80;99.90;;;;;;5094244;28;20692;-66
2022/03/12 16:55:36;;;;;;;10.47;5.47;;;2.80;99.90;;;;;;5093560;28;20228;-66
2022/03/12 16:58:04;;;;;;;10.27;5.40;;;2.80;99.90;;;;;;5094149;28;20211;-69
2022/03/12 17:00:33;;;;;;;9.13;5.47;;;2.80;99.90;;;;;;5093993;28;20277;-66
2022/03/12 17:03:03;;;;;;;10.90;6.37;;;2.80;99.90;;;;;;5093785;28;20392;-66
2022/03/12 17:05:31;;;;;;;10.03;6.17;;;2.80;99.90;;;;;;5093603;28;20228;-67
2022/03/12 17:08:00;;;;;;;10.90;5.80;;;2.80;99.90;;;;;;5094117;28;20688;-67
2022/03/12 17:10:28;;;;;;;9.07;5.40;;;2.70;99.90;;;;;;5093556;28;20211;-67
2022/03/12 17:12:55;;;;;;;10.03;5.43;;;2.70;99.90;;;;;;5094036;28;20208;-67
2022/03/12 17:15:25;;;;;;;14.83;5.97;;;2.70;99.90;;;;;;5093642;28;20219;-67
2022/03/12 17:17:58;;;;;;;10.20;5.73;;;2.70;99.90;;;;;;5093219;28;20853;-66
2022/03/12 17:20:29;;;;;;;12.43;5.93;;;2.70;99.90;;;;;;5093230;28;20215;-68
2022/03/12 17:22:56;;;;;;;7.43;4.83;;;2.70;99.90;;;;;;5094015;28;20710;-67
2022/03/12 17:25:26;;;;;;;7.17;4.33;;;2.70;99.90;;;;;;5093167;28;20204;-66
2022/03/12 17:27:57;;;;;;;7.77;4.00;;;2.70;99.90;;;;;;5093442;28;20231;-66
2022/03/12 17:30:25;;;;;;;7.13;3.90;;;2.70;99.90;;;;;;5093096;28;20224;-67
2022/03/12 17:32:55;;;;;;;6.80;3.80;;;2.60;99.90;;;;;;5093186;28;20207;-66
2022/03/12 17:35:23;;;;;;;6.80;3.80;;;2.60;99.90;;;;;;5092949;28;20255;-68
2022/03/12 17:37:50;;;;;;;8.97;3.77;;;2.60;99.90;;;;;;5093140;28;20265;-66
2022/03/12 17:40:19;;;;;;;7.33;3.73;;;2.60;99.90;;;;;;5092740;28;20212;-67
2022/03/12 17:42:50;;;;;;;8.47;4.30;;;2.60;99.90;;;;;;5093085;28;20569;-67
2022/03/12 17:45:18;;;;;;;6.70;4.20;;;2.60;99.90;;;;;;5093090;28;20215;-68
2022/03/12 17:47:45;;;;;;;8.27;4.73;;;2.60;99.90;;;;;;5092917;28;20207;-66
2022/03/12 17:50:17;;;;;;;9.40;5.00;;;2.50;99.90;;;;;;5093204;28;20564;-68
2022/03/12 17:52:44;;;;;;;7.17;4.30;;;2.50;99.90;;;;;;5092963;28;20192;-67
2022/03/12 17:55:12;;;;;;;9.40;4.17;;;2.50;99.90;;;;;;5092953;28;20282;-67
2022/03/12 17:57:42;;;;;;;6.60;4.20;;;2.40;99.90;;;;;;5092846;28;20208;-67
2022/03/12 18:00:14;;;;;;;7.80;3.90;;;2.40;99.90;;;;;;5092606;28;20211;-66
2022/03/12 18:02:41;;;;;;;7.73;4.17;;;2.40;99.90;;;;;;5092794;28;20652;-67
2022/03/12 18:05:09;;;;;;;6.97;3.90;;;2.40;99.90;;;;;;5092174;28;20271;-66
2022/03/12 18:07:36;;;;;;;6.10;3.87;;;2.40;99.90;;;;;;5092863;28;20673;-66
2022/03/12 18:10:07;;;;;;;6.23;3.83;;;2.30;99.90;;;;;;5092462;28;20210;-67
2022/03/12 18:12:35;;;;;;;7.67;3.67;;;2.30;99.90;;;;;;5092485;28;20193;-68
2022/03/12 18:15:03;;;;;;;7.13;3.93;;;2.30;99.90;;;;;;5092133;28;20245;-66
2022/03/12 18:17:35;;;;;;;8.13;4.10;;;2.20;99.90;;;;;;5092655;28;20728;-66
2022/03/12 18:20:02;;;;;;;6.23;3.87;;;2.10;99.90;;;;;;5092250;28;20287;-68
2022/03/12 18:22:30;;;;;;;5.83;3.77;;;2.10;99.90;;;;;;5092300;28;20211;-67
2022/03/12 18:24:57;;;;;;;7.87;3.77;;;2.00;99.90;;;;;;5092307;28;20204;-67
2022/03/12 18:27:24;;;;;;;6.13;3.57;;;2.10;99.90;;;;;;5092158;28;20208;-67
2022/03/12 18:29:51;;;;;;;9.80;3.97;;;2.00;99.90;;;;;;5091938;28;20207;-67
2022/03/12 18:32:20;;;;;;;7.30;4.20;;;2.00;99.90;;;;;;5092359;28;20268;-68
2022/03/12 18:34:50;;;;;;;7.97;4.17;;;2.00;99.90;;;;;;5092437;28;20296;-66
2022/03/12 18:37:18;;;;;;;7.20;3.93;;;2.00;99.90;;;;;;5092279;28;20552;-67
2022/03/12 18:39:46;;;;;;;6.57;3.97;;;2.00;99.90;;;;;;5092081;28;20211;-66
2022/03/12 18:42:14;;;;;;;9.37;4.33;;;2.00;99.90;;;;;;5092021;28;20664;-67
2022/03/12 18:44:41;;;;;;;9.47;4.27;;;2.00;99.90;;;;;;5091972;28;20208;-66
2022/03/12 18:47:11;;;;;;;8.67;4.20;;;2.00;99.90;;;;;;5092182;28;20302;-66
2022/03/12 18:49:40;;;;;;;8.03;4.07;;;2.00;99.90;;;;;;5092519;28;20200;-66
2022/03/12 18:52:09;;;;;;;7.03;3.83;;;2.00;99.90;;;;;;5092108;28;20207;-67
2022/03/12 18:54:36;;;;;;;8.03;4.10;;;2.00;99.90;;;;;;5091766;28;20204;-67
2022/03/12 18:57:04;;;;;;;9.17;4.43;;;2.00;99.90;;;;;;5091691;28;20220;-66
2022/03/12 18:59:31;;;;;;;8.43;4.47;;;2.00;99.90;;;;;;5091866;28;20253;-66
2022/03/12 19:01:58;;;;;;;9.57;4.97;;;2.00;99.90;;;;;;5092020;28;20564;-66
2022/03/12 19:04:26;;;;;;;9.03;4.70;;;2.00;99.90;;;;;;5091904;28;20350;-66
2022/03/12 19:06:53;;;;;;;11.23;4.83;;;2.00;99.90;;;;;;5091897;28;20208;-66
2022/03/12 19:09:22;;;;;;;8.87;4.97;;;2.10;99.90;;;;;;5091778;28;20219;-66
2022/03/12 19:11:50;;;;;;;10.60;4.90;;;2.10;99.90;;;;;;5092008;28;20580;-66
2022/03/12 19:14:17;;;;;;;12.03;5.50;;;2.00;99.90;;;;;;5091767;28;20261;-67
2022/03/12 19:16:45;;;;;;;9.27;4.97;;;2.00;99.90;;;;;;5091937;28;20231;-66
2022/03/12 19:19:12;;;;;;;9.20;5.10;;;2.00;99.90;;;;;;5091601;28;20226;-67
2022/03/12 19:21:40;;;;;;;11.07;5.57;;;2.00;99.90;;;;;;5091656;28;20211;-66
2022/03/12 19:24:13;;;;;;;12.33;5.60;;;2.00;99.90;;;;;;5091477;28;20212;-67
2022/03/12 19:26:44;;;;;;;10.37;5.23;;;2.00;99.90;;;;;;5091750;28;20637;-67